Time;durP1;ratioP1;P1;durP2;ratioP2;P2;SDS_P1;SDS_P2;PMS_P1;PMS_P2;Temp;Humidity;BMP_temperature;BMP_pressure;BME280_temperature;BME280_humidity;BME280_pressure;Samples;Min_cycle;Max_cycle;Signal;HPM_P1;HPM_P2
2024/04/15 00:00:25;;;;;;;1999.90;999.90;;;18.30;69.90;;;;;;5409350;26;20000;-79
2024/04/15 00:02:51;;;;;;;1999.90;999.90;;;18.20;70.20;;;;;;5414224;26;20059;-79
2024/04/15 00:05:17;;;;;;;1999.90;999.90;;;18.10;70.80;;;;;;5423937;26;20010;-77
2024/04/15 00:07:43;;;;;;;1999.90;999.90;;;18.20;71.10;;;;;;5426012;26;20011;-77
2024/04/15 00:10:09;;;;;;;1999.90;999.90;;;18.10;71.40;;;;;;5418715;26;20579;-77
2024/04/15 00:12:35;;;;;;;1999.90;999.90;;;18.00;71.80;;;;;;5429248;26;20003;-76
2024/04/15 00:15:01;;;;;;;1999.90;999.90;;;17.90;72.40;;;;;;5423215;26;20010;-77
2024/04/15 00:17:26;;;;;;;1999.90;999.90;;;17.90;72.50;;;;;;5436085;26;20002;-78
2024/04/15 00:19:52;;;;;;;1999.90;999.90;;;17.90;72.70;;;;;;5421943;26;20229;-78
2024/04/15 00:22:18;;;;;;;1999.90;999.90;;;17.90;72.90;;;;;;5420406;26;19996;-78
2024/04/15 00:24:44;;;;;;;1999.90;999.90;;;17.90;72.70;;;;;;5420603;26;20008;-78
2024/04/15 00:27:09;;;;;;;1999.90;999.90;;;17.90;72.90;;;;;;5409527;26;19995;-78
2024/04/15 00:29:35;;;;;;;1999.90;999.90;;;17.80;73.00;;;;;;5412700;26;19999;-77
2024/04/15 00:32:01;;;;;;;1999.90;999.90;;;17.80;73.20;;;;;;5412468;26;20010;-77
2024/04/15 00:34:26;;;;;;;1999.90;999.90;;;17.70;73.40;;;;;;5413669;26;20814;-79
2024/04/15 00:36:52;;;;;;;1999.90;999.90;;;17.80;73.50;;;;;;5430840;26;20017;-77
2024/04/15 00:39:18;;;;;;;1999.90;999.90;;;17.80;73.60;;;;;;5422104;26;19995;-78
2024/04/15 00:41:43;;;;;;;1999.90;999.90;;;17.80;73.50;;;;;;5423693;26;20007;-78
2024/04/15 00:44:09;;;;;;;1999.90;999.90;;;17.70;73.70;;;;;;5415070;26;20014;-77
2024/04/15 00:46:35;;;;;;;1999.90;999.90;;;17.80;73.60;;;;;;5432199;26;20946;-77
2024/04/15 00:49:01;;;;;;;1999.90;999.90;;;17.70;73.80;;;;;;5430884;26;20027;-77
2024/04/15 00:51:28;;;;;;;1999.90;999.90;;;17.90;73.70;;;;;;5419908;26;20495;-77
2024/04/15 00:53:55;;;;;;;1999.90;999.90;;;17.80;73.60;;;;;;5424427;26;19994;-77
2024/04/15 00:56:22;;;;;;;1999.90;999.90;;;17.80;73.40;;;;;;5426069;26;20694;-76
2024/04/15 00:58:48;;;;;;;1999.90;999.90;;;17.90;73.40;;;;;;5420158;26;20013;-77
2024/04/15 01:01:14;;;;;;;1999.90;999.90;;;17.90;73.70;;;;;;5419248;26;19995;-77
2024/04/15 01:03:40;;;;;;;1999.90;999.90;;;18.00;73.30;;;;;;5430326;26;19995;-75
2024/04/15 01:06:06;;;;;;;1999.90;999.90;;;18.10;73.70;;;;;;5411021;26;19994;-76
2024/04/15 01:08:32;;;;;;;1999.90;999.90;;;18.10;73.10;;;;;;5427406;26;20018;-76
2024/04/15 01:10:58;;;;;;;1999.90;999.90;;;18.10;73.20;;;;;;5416510;26;20072;-77
2024/04/15 01:13:25;;;;;;;1999.90;999.90;;;18.10;73.20;;;;;;5419387;26;20331;-76
2024/04/15 01:16:00;;;;;;;1999.90;999.90;;;18.10;73.20;;;;;;5415396;26;20006;-78
2024/04/15 01:18:27;;;;;;;1999.90;999.90;;;18.10;73.50;;;;;;5420497;26;20449;-77
2024/04/15 01:20:56;;;;;;;1999.90;999.90;;;17.90;73.90;;;;;;5418924;26;20071;-77
2024/04/15 01:23:29;;;;;;;1999.90;999.90;;;17.80;74.30;;;;;;5414060;26;19999;-77
2024/04/15 01:25:54;;;;;;;1999.90;999.90;;;17.70;75.00;;;;;;5422469;26;20014;-77
2024/04/15 01:28:20;;;;;;;1999.90;999.90;;;17.70;75.00;;;;;;5421407;26;19999;-77
2024/04/15 01:30:46;;;;;;;1999.90;999.90;;;17.60;75.30;;;;;;5416950;26;20004;-76
2024/04/15 01:33:12;;;;;;;1999.90;999.90;;;17.70;75.20;;;;;;5414050;26;20017;-77
2024/04/15 01:35:38;;;;;;;1999.90;999.90;;;17.70;75.20;;;;;;5419668;26;20325;-78
2024/04/15 01:38:03;;;;;;;1999.90;999.90;;;17.70;75.40;;;;;;5424720;26;19995;-78
2024/04/15 01:40:29;;;;;;;1999.90;999.90;;;17.50;75.80;;;;;;5422169;26;20151;-77
2024/04/15 01:42:55;;;;;;;1999.90;999.90;;;17.40;76.90;;;;;;5419903;26;20291;-77
2024/04/15 01:45:21;;;;;;;1999.90;999.90;;;17.40;77.10;;;;;;5428149;26;20228;-76
2024/04/15 01:47:47;;;;;;;1999.90;999.90;;;17.50;77.10;;;;;;5430681;26;20350;-76
2024/04/15 01:50:19;;;;;;;1999.90;999.90;;;17.50;76.90;;;;;;5407757;26;20439;-76
2024/04/15 01:52:45;;;;;;;1999.90;999.90;;;17.50;77.10;;;;;;5412686;26;20035;-75
2024/04/15 01:55:11;;;;;;;1999.90;999.90;;;17.50;77.00;;;;;;5431739;26;19999;-76
2024/04/15 01:57:37;;;;;;;1999.90;999.90;;;17.50;77.10;;;;;;5431244;26;20010;-75
2024/04/15 02:00:06;;;;;;;1999.90;999.90;;;17.40;77.50;;;;;;5415128;26;20067;-76
2024/04/15 02:02:32;;;;;;;1999.90;999.90;;;17.40;77.70;;;;;;5420738;26;20050;-76
2024/04/15 02:04:58;;;;;;;1999.90;999.90;;;17.30;78.40;;;;;;5419574;26;20022;-77
2024/04/15 02:07:25;;;;;;;1999.90;999.90;;;17.20;79.10;;;;;;5423261;26;20000;-76
2024/04/15 02:09:51;;;;;;;1999.90;999.90;;;17.10;79.80;;;;;;5420432;26;20003;-76
2024/04/15 02:12:17;;;;;;;1999.90;999.90;;;17.10;79.80;;;;;;5417119;26;20089;-77
2024/04/15 02:14:43;;;;;;;1999.90;999.90;;;17.00;80.60;;;;;;5422880;26;20975;-76
2024/04/15 02:17:09;;;;;;;1999.90;999.90;;;17.00;80.80;;;;;;5408244;26;20618;-77
2024/04/15 02:19:34;;;;;;;1999.90;999.90;;;17.10;80.70;;;;;;5409787;26;20014;-76
2024/04/15 02:22:00;;;;;;;1999.90;999.90;;;17.10;80.60;;;;;;5419667;26;20026;-77
2024/04/15 02:24:27;;;;;;;1999.90;999.90;;;17.10;80.50;;;;;;5426441;26;20009;-76
2024/04/15 02:26:53;;;;;;;1999.90;999.90;;;17.00;80.50;;;;;;5418269;26;20262;-77
2024/04/15 02:29:19;;;;;;;1999.90;999.90;;;16.90;80.70;;;;;;5425882;26;20017;-76
2024/04/15 02:31:45;;;;;;;1999.90;999.90;;;16.90;80.80;;;;;;5426472;26;20586;-77
2024/04/15 02:34:10;;;;;;;1999.90;999.90;;;17.00;81.00;;;;;;5429288;26;19995;-78
2024/04/15 02:36:36;;;;;;;1999.90;999.90;;;16.80;81.50;;;;;;5429064;26;20361;-78
2024/04/15 02:39:02;;;;;;;1999.90;999.90;;;16.90;81.40;;;;;;5432427;26;19995;-78
2024/04/15 02:41:28;;;;;;;1999.90;999.90;;;16.80;81.40;;;;;;5429479;26;20023;-79
2024/04/15 02:43:53;;;;;;;1999.90;999.90;;;16.70;82.20;;;;;;5420929;26;19992;-79
2024/04/15 02:46:19;;;;;;;1999.90;999.90;;;16.80;81.90;;;;;;5420493;26;20000;-78
2024/04/15 02:48:45;;;;;;;1999.90;999.90;;;16.80;82.10;;;;;;5430006;26;19995;-78
2024/04/15 02:51:10;;;;;;;1999.90;999.90;;;16.60;82.20;;;;;;5413811;26;20019;-78
2024/04/15 02:53:36;;;;;;;1999.90;999.90;;;16.70;82.10;;;;;;5416438;26;20013;-77
2024/04/15 02:56:02;;;;;;;1999.90;999.90;;;16.60;82.80;;;;;;5420092;26;20096;-76
2024/04/15 02:58:28;;;;;;;1999.90;999.90;;;16.50;82.50;;;;;;5420774;26;19999;-77
2024/04/15 03:00:53;;;;;;;1999.90;999.90;;;16.50;82.80;;;;;;5425419;26;20562;-76
2024/04/15 03:03:19;;;;;;;1999.90;999.90;;;16.40;83.30;;;;;;5419386;26;20007;-77
2024/04/15 03:05:45;;;;;;;1999.90;999.90;;;16.20;84.30;;;;;;5420859;26;20018;-76
2024/04/15 03:08:11;;;;;;;1999.90;999.90;;;16.10;84.30;;;;;;5432825;26;20003;-77
2024/04/15 03:10:37;;;;;;;1999.90;999.90;;;16.10;84.90;;;;;;5426334;26;20403;-78
2024/04/15 03:13:03;;;;;;;1999.90;999.90;;;16.20;84.40;;;;;;5427038;26;20019;-77
2024/04/15 03:15:29;;;;;;;1999.90;999.90;;;16.20;84.70;;;;;;5413325;26;20000;-78
2024/04/15 03:17:55;;;;;;;;;;;16.20;84.80;;;;;;5420533;26;19994;-78
2024/04/15 03:20:22;;;;;;;1999.90;999.90;;;16.20;84.40;;;;;;5426718;26;19932;-79
2024/04/15 03:22:51;;;;;;;1999.90;999.90;;;15.90;85.80;;;;;;5421910;26;19996;-78
2024/04/15 03:25:19;;;;;;;1999.90;999.90;;;16.00;85.90;;;;;;5413313;26;20548;-77
2024/04/15 03:27:45;;;;;;;1999.90;999.90;;;16.10;85.60;;;;;;5418936;26;20000;-78
2024/04/15 03:30:12;;;;;;;1999.90;999.90;;;16.20;85.10;;;;;;5411541;26;20015;-79
2024/04/15 03:32:37;;;;;;;1999.90;999.90;;;16.30;84.10;;;;;;5414391;26;19999;-79
2024/04/15 03:35:04;;;;;;;1999.90;999.90;;;16.40;83.60;;;;;;5418314;26;20109;-79
2024/04/15 03:37:29;;;;;;;1999.90;999.90;;;16.40;83.40;;;;;;5425089;26;20000;-78
2024/04/15 03:39:55;;;;;;;1999.90;999.90;;;16.50;83.20;;;;;;5421476;26;20014;-77
2024/04/15 03:42:21;;;;;;;1999.90;999.90;;;16.30;83.40;;;;;;5427403;26;19995;-77
2024/04/15 03:44:49;;;;;;;1999.90;999.90;;;16.20;83.80;;;;;;5418013;26;20031;-78
2024/04/15 03:47:15;;;;;;;1999.90;999.90;;;16.00;84.60;;;;;;5426301;26;20057;-77
2024/04/15 03:49:41;;;;;;;1999.90;999.90;;;15.80;85.60;;;;;;5409955;26;20004;-77
2024/04/15 03:52:06;;;;;;;1999.90;999.90;;;15.60;86.80;;;;;;5417035;26;20003;-77
2024/04/15 03:54:33;;;;;;;1999.90;999.90;;;15.50;87.80;;;;;;5414277;26;19999;-77
2024/04/15 03:56:59;;;;;;;1999.90;999.90;;;15.70;87.10;;;;;;5422028;26;20586;-78
2024/04/15 03:59:24;;;;;;;1999.90;999.90;;;15.30;89.30;;;;;;5428496;26;20003;-78
2024/04/15 04:01:50;;;;;;;1999.90;999.90;;;15.40;90.00;;;;;;5414736;26;20015;-79
2024/04/15 04:04:18;;;;;;;1999.90;999.90;;;15.40;89.90;;;;;;5407325;26;20447;-77
2024/04/15 04:06:44;;;;;;;1999.90;999.90;;;15.40;89.70;;;;;;5433691;26;20013;-79
2024/04/15 04:09:09;;;;;;;1999.90;999.90;;;15.30;90.20;;;;;;5414623;26;19999;-77
2024/04/15 04:11:35;;;;;;;1999.90;999.90;;;15.50;90.00;;;;;;5413003;26;20144;-76
2024/04/15 04:14:01;;;;;;;1999.90;999.90;;;15.30;90.00;;;;;;5424287;26;20026;-76
2024/04/15 04:16:26;;;;;;;1999.90;999.90;;;15.20;90.50;;;;;;5424282;26;20002;-80
2024/04/15 04:18:52;;;;;;;1999.90;999.90;;;15.20;90.80;;;;;;5417971;26;20073;-76
2024/04/15 04:21:18;;;;;;;1999.90;999.90;;;15.20;91.20;;;;;;5429045;26;19999;-79
2024/04/15 04:23:43;;;;;;;1999.90;999.90;;;15.30;90.70;;;;;;5404845;26;20011;-79
2024/04/15 04:26:09;;;;;;;1999.90;999.90;;;15.30;90.70;;;;;;5411097;26;20018;-78
2024/04/15 04:28:35;;;;;;;1999.90;999.90;;;15.30;90.80;;;;;;5415542;26;20049;-78
2024/04/15 04:31:04;;;;;;;1999.90;999.90;;;15.20;91.10;;;;;;5429422;26;20034;-77
2024/04/15 04:33:31;;;;;;;1999.90;999.90;;;15.10;91.30;;;;;;5419235;26;20006;-78
2024/04/15 04:35:58;;;;;;;1999.90;999.90;;;15.00;91.50;;;;;;5421779;26;20030;-78
2024/04/15 04:38:23;;;;;;;1999.90;999.90;;;15.10;91.80;;;;;;5417509;26;19999;-78
2024/04/15 04:40:56;;;;;;;1999.90;999.90;;;15.00;92.10;;;;;;5415178;26;19994;-78
2024/04/15 04:43:22;;;;;;;1999.90;999.90;;;15.10;91.70;;;;;;5422407;26;19996;-75
2024/04/15 04:45:48;;;;;;;1999.90;999.90;;;15.00;91.90;;;;;;5415184;26;20017;-78
2024/04/15 04:48:13;;;;;;;1999.90;999.90;;;15.10;92.10;;;;;;5421246;26;20003;-79
2024/04/15 04:50:39;;;;;;;1999.90;999.90;;;15.00;92.30;;;;;;5413704;26;20018;-79
2024/04/15 04:53:05;;;;;;;1999.90;999.90;;;15.10;92.50;;;;;;5414047;26;19999;-78
2024/04/15 04:55:33;;;;;;;1999.90;999.90;;;15.10;92.50;;;;;;5421802;26;20013;-79
2024/04/15 04:57:58;;;;;;;1999.90;999.90;;;15.00;92.70;;;;;;5436150;26;20575;-80
2024/04/15 05:00:24;;;;;;;1999.90;999.90;;;14.90;92.80;;;;;;5414606;26;20000;-77
2024/04/15 05:02:50;;;;;;;1999.90;999.90;;;15.00;92.80;;;;;;5417029;26;19995;-78
2024/04/15 05:05:15;;;;;;;1999.90;999.90;;;15.10;92.70;;;;;;5426839;26;20076;-75
2024/04/15 05:07:41;;;;;;;1999.90;999.90;;;15.00;93.10;;;;;;5415577;26;20006;-75
2024/04/15 05:10:07;;;;;;;1999.90;999.90;;;14.90;93.20;;;;;;5427992;26;20003;-75
2024/04/15 05:12:33;;;;;;;1999.90;999.90;;;14.90;93.40;;;;;;5420345;26;19999;-75
2024/04/15 05:14:58;;;;;;;1999.90;999.90;;;14.90;93.50;;;;;;5425024;26;20072;-75
2024/04/15 05:17:24;;;;;;;1999.90;999.90;;;15.00;93.40;;;;;;5428211;26;20034;-75
2024/04/15 05:19:50;;;;;;;1999.90;999.90;;;15.10;93.40;;;;;;5407794;26;20009;-76
2024/04/15 05:22:15;;;;;;;1999.90;999.90;;;15.10;93.30;;;;;;5418754;26;19999;-74
2024/04/15 05:24:41;;;;;;;1999.90;999.90;;;15.10;93.30;;;;;;5408688;26;20013;-76
2024/04/15 05:27:06;;;;;;;1999.90;999.90;;;15.20;93.10;;;;;;5409165;26;20013;-76
2024/04/15 05:29:32;;;;;;;1999.90;999.90;;;15.20;93.70;;;;;;5428248;26;20010;-76
2024/04/15 05:31:58;;;;;;;1999.90;999.90;;;15.20;93.80;;;;;;5418813;26;20005;-76
2024/04/15 05:34:24;;;;;;;1999.90;999.90;;;15.50;93.30;;;;;;5422340;26;19998;-76
2024/04/15 05:36:49;;;;;;;1999.90;999.90;;;15.50;93.20;;;;;;5417215;26;20003;-74
2024/04/15 05:39:15;;;;;;;1999.90;999.90;;;15.30;93.80;;;;;;5425134;26;20006;-75
2024/04/15 05:41:40;;;;;;;1999.90;999.90;;;15.20;94.50;;;;;;5428824;26;20961;-74
2024/04/15 05:44:06;;;;;;;1999.90;999.90;;;15.30;94.40;;;;;;5421417;26;20006;-75
2024/04/15 05:46:32;;;;;;;1999.90;999.90;;;15.20;94.90;;;;;;5425435;26;19995;-76
2024/04/15 05:48:58;;;;;;;1999.90;999.90;;;15.10;95.20;;;;;;5427679;26;19995;-75
2024/04/15 05:51:23;;;;;;;1999.90;999.90;;;15.20;95.10;;;;;;5425673;26;20751;-76
2024/04/15 05:53:49;;;;;;;1999.90;999.90;;;15.10;95.10;;;;;;5425950;26;19999;-76
2024/04/15 05:56:15;;;;;;;1999.90;999.90;;;15.20;95.30;;;;;;5414070;26;20750;-75
2024/04/15 05:58:40;;;;;;;1999.90;999.90;;;15.30;95.10;;;;;;5418782;26;19994;-75
2024/04/15 06:01:06;;;;;;;1999.90;999.90;;;15.10;95.30;;;;;;5417956;26;19995;-76
2024/04/15 06:03:32;;;;;;;1999.90;999.90;;;15.00;95.60;;;;;;5410329;26;20046;-76
2024/04/15 06:05:57;;;;;;;1999.90;999.90;;;15.10;95.80;;;;;;5429298;26;20002;-75
2024/04/15 06:08:23;;;;;;;1999.90;999.90;;;15.10;95.80;;;;;;5422931;26;20007;-76
2024/04/15 06:10:49;;;;;;;1999.90;999.90;;;15.20;95.50;;;;;;5422903;26;19999;-78
2024/04/15 06:13:14;;;;;;;1999.90;999.90;;;15.10;95.50;;;;;;5434293;26;19998;-76
2024/04/15 06:15:40;;;;;;;1999.90;999.90;;;15.10;95.60;;;;;;5427054;26;20047;-78
2024/04/15 06:18:07;;;;;;;1999.90;999.90;;;15.20;95.50;;;;;;5424460;26;20010;-77
2024/04/15 06:20:33;;;;;;;1999.90;999.90;;;15.10;95.60;;;;;;5416201;26;20010;-75
2024/04/15 06:22:59;;;;;;;1999.90;999.90;;;15.10;95.80;;;;;;5419947;26;19996;-76
2024/04/15 06:25:24;;;;;;;1999.90;999.90;;;15.20;95.70;;;;;;5428047;26;20999;-77
2024/04/15 06:27:50;;;;;;;1999.90;999.90;;;15.20;95.80;;;;;;5433725;26;20006;-77
2024/04/15 06:30:16;;;;;;;1999.90;999.90;;;15.20;95.70;;;;;;5410000;26;20770;-78
2024/04/15 06:32:42;;;;;;;1999.90;999.90;;;15.00;96.00;;;;;;5414501;26;20014;-78
2024/04/15 06:35:07;;;;;;;1999.90;999.90;;;15.10;96.20;;;;;;5407151;26;20008;-77
2024/04/15 06:37:33;;;;;;;1999.90;999.90;;;15.10;96.10;;;;;;5423866;26;20031;-77
2024/04/15 06:39:59;;;;;;;1999.90;999.90;;;15.20;95.70;;;;;;5408105;26;20000;-77
2024/04/15 06:42:25;;;;;;;1999.90;999.90;;;15.20;95.80;;;;;;5414521;26;20015;-78
2024/04/15 06:44:50;;;;;;;1999.90;999.90;;;15.00;96.00;;;;;;5407950;26;19999;-77
2024/04/15 06:47:16;;;;;;;1999.90;999.90;;;15.10;96.30;;;;;;5416086;26;20042;-77
2024/04/15 06:49:42;;;;;;;1999.90;999.90;;;15.30;95.90;;;;;;5422883;26;20454;-77
2024/04/15 06:52:07;;;;;;;1999.90;999.90;;;15.20;95.70;;;;;;5437118;26;20104;-77
2024/04/15 06:54:36;;;;;;;1999.90;999.90;;;15.20;95.70;;;;;;5431704;26;20019;-76
2024/04/15 06:57:02;;;;;;;1999.90;999.90;;;15.10;95.70;;;;;;5432235;26;20803;-77
2024/04/15 06:59:28;;;;;;;1999.90;999.90;;;15.20;95.60;;;;;;5418230;26;19995;-78
2024/04/15 07:01:53;;;;;;;1999.90;999.90;;;15.10;96.20;;;;;;5424133;26;20010;-77
2024/04/15 07:04:19;;;;;;;1999.90;999.90;;;15.20;95.90;;;;;;5422528;26;20048;-77
2024/04/15 07:06:45;;;;;;;1999.90;999.90;;;15.40;95.40;;;;;;5424033;26;20017;-77
2024/04/15 07:09:10;;;;;;;1999.90;999.90;;;15.30;95.80;;;;;;5421353;26;20041;-78
2024/04/15 07:11:36;;;;;;;1999.90;999.90;;;15.30;95.60;;;;;;5445033;26;20007;-77
2024/04/15 07:14:01;;;;;;;1999.90;999.90;;;15.40;95.60;;;;;;5426919;26;20367;-77
2024/04/15 07:16:27;;;;;;;1999.90;999.90;;;15.20;95.70;;;;;;5429982;26;19999;-77
2024/04/15 07:18:53;;;;;;;1999.90;999.90;;;15.10;95.80;;;;;;5438736;26;20015;-76
2024/04/15 07:21:21;;;;;;;1999.90;999.90;;;15.00;96.10;;;;;;5406613;26;20011;-77
2024/04/15 07:23:47;;;;;;;1999.90;999.90;;;15.20;95.80;;;;;;5410767;26;20003;-77
2024/04/15 07:26:13;;;;;;;1999.90;999.90;;;15.10;95.90;;;;;;5405214;26;20825;-77
2024/04/15 07:28:38;;;;;;;1999.90;999.90;;;15.10;96.00;;;;;;5415380;26;19995;-76
2024/04/15 07:31:05;;;;;;;1999.90;999.90;;;15.00;96.10;;;;;;5418038;26;20523;-76
2024/04/15 07:33:31;;;;;;;1999.90;999.90;;;15.20;95.80;;;;;;5433223;26;20363;-77
2024/04/15 07:35:59;;;;;;;1999.90;999.90;;;15.20;95.80;;;;;;5425891;26;20005;-78
2024/04/15 07:38:25;;;;;;;1999.90;999.90;;;15.40;95.50;;;;;;5440244;26;20395;-77
2024/04/15 07:40:51;;;;;;;1999.90;999.90;;;15.40;95.10;;;;;;5434060;26;20553;-77
2024/04/15 07:43:16;;;;;;;1999.90;999.90;;;15.20;95.20;;;;;;5422355;26;20010;-78
2024/04/15 07:45:44;;;;;;;1999.90;999.90;;;15.40;95.00;;;;;;5417795;26;20214;-78
2024/04/15 07:48:09;;;;;;;1999.90;999.90;;;15.40;94.80;;;;;;5428981;26;20000;-77
2024/04/15 07:50:35;;;;;;;1999.90;999.90;;;15.20;95.20;;;;;;5414450;26;20013;-76
2024/04/15 07:53:01;;;;;;;1999.90;999.90;;;15.20;94.90;;;;;;5417339;26;19992;-77
2024/04/15 07:55:26;;;;;;;1999.90;999.90;;;15.00;95.30;;;;;;5423501;26;19994;-76
2024/04/15 07:57:53;;;;;;;1999.90;999.90;;;15.00;95.20;;;;;;5416635;26;19996;-77
2024/04/15 08:00:18;;;;;;;;;;;14.90;95.20;;;;;;5414774;26;20545;-76
2024/04/15 08:02:44;;;;;;;1999.90;999.90;;;15.10;94.80;;;;;;5430968;26;19928;-77
2024/04/15 08:05:10;;;;;;;1999.90;999.90;;;15.00;94.60;;;;;;5418457;26;20323;-77
2024/04/15 08:07:36;;;;;;;1999.90;999.90;;;14.90;95.20;;;;;;5427893;26;20511;-77
2024/04/15 08:10:02;;;;;;;1999.90;999.90;;;15.10;94.90;;;;;;5421743;26;20071;-77
2024/04/15 08:12:28;;;;;;;1999.90;999.90;;;14.80;95.10;;;;;;5426361;26;20862;-77
2024/04/15 08:14:53;;;;;;;1999.90;999.90;;;14.90;94.90;;;;;;5433069;26;20050;-78
2024/04/15 08:17:19;;;;;;;1999.90;999.90;;;14.80;94.70;;;;;;5418856;26;20046;-77
2024/04/15 08:19:45;;;;;;;1999.90;999.90;;;14.60;94.70;;;;;;5443807;26;20009;-76
2024/04/15 08:22:11;;;;;;;1999.90;999.90;;;14.70;95.20;;;;;;5418104;26;20061;-77
2024/04/15 08:24:37;;;;;;;1999.90;999.90;;;14.70;94.80;;;;;;5425789;26;19990;-78
2024/04/15 08:27:03;;;;;;;1999.90;999.90;;;14.60;94.80;;;;;;5413160;26;20034;-77
2024/04/15 08:29:29;;;;;;;1999.90;999.90;;;14.50;95.20;;;;;;5412917;26;19999;-77
2024/04/15 08:31:54;;;;;;;1999.90;999.90;;;14.70;94.70;;;;;;5433276;26;20084;-77
2024/04/15 08:34:20;;;;;;;1999.90;999.90;;;14.60;94.80;;;;;;5427495;26;20002;-78
2024/04/15 08:36:46;;;;;;;1999.90;999.90;;;14.50;94.60;;;;;;5426768;26;20002;-77
2024/04/15 08:39:12;;;;;;;1999.90;999.90;;;14.40;94.10;;;;;;5423208;26;20003;-77
2024/04/15 08:42:13;;;;;;;1999.90;999.90;;;14.30;94.50;;;;;;5426217;26;20446;-78
2024/04/15 08:44:42;;;;;;;1999.90;999.90;;;14.30;94.10;;;;;;5414940;26;20010;-78
2024/04/15 08:47:12;;;;;;;1999.90;999.90;;;14.30;94.20;;;;;;5429053;26;20079;-77
2024/04/15 08:49:39;;;;;;;1999.90;999.90;;;14.30;94.10;;;;;;5417311;26;20014;-77
2024/04/15 08:52:06;;;;;;;;;;;14.30;94.00;;;;;;5434185;26;20002;-76
2024/04/15 08:54:31;;;;;;;1999.90;999.90;;;14.60;93.30;;;;;;5419527;26;19996;-76
2024/04/15 08:57:01;;;;;;;1999.90;999.90;;;14.40;93.20;;;;;;5432052;26;20002;-77
2024/04/15 08:59:30;;;;;;;1999.90;999.90;;;14.40;93.20;;;;;;5421253;26;19995;-77
2024/04/15 09:01:55;;;;;;;1999.90;999.90;;;14.40;93.10;;;;;;5420120;26;20006;-77
2024/04/15 09:04:23;;;;;;;1999.90;999.90;;;14.40;93.00;;;;;;5420873;26;20355;-77
2024/04/15 09:06:48;;;;;;;1999.90;999.90;;;14.30;92.90;;;;;;5426246;26;20006;-77
2024/04/15 09:09:14;;;;;;;1999.90;999.90;;;14.40;93.00;;;;;;5433915;26;19994;-76
2024/04/15 09:11:40;;;;;;;1999.90;999.90;;;14.50;92.80;;;;;;5418072;26;19991;-77
2024/04/15 09:14:05;;;;;;;1999.90;999.90;;;14.50;92.40;;;;;;5434379;26;20758;-77
2024/04/15 09:16:32;;;;;;;1999.90;999.90;;;14.60;92.10;;;;;;5425180;26;20015;-77
2024/04/15 09:18:58;;;;;;;1999.90;999.90;;;14.60;92.30;;;;;;5432525;26;20014;-77
2024/04/15 09:21:25;;;;;;;1999.90;999.90;;;14.80;91.70;;;;;;5406341;26;20031;-76
2024/04/15 09:23:50;;;;;;;1999.90;999.90;;;15.00;91.10;;;;;;5420520;26;20068;-77
2024/04/15 09:26:16;;;;;;;1999.90;999.90;;;14.90;90.50;;;;;;5409579;26;20007;-77
2024/04/15 09:28:42;;;;;;;1999.90;999.90;;;15.10;90.60;;;;;;5434101;26;20040;-77
2024/04/15 09:31:08;;;;;;;1999.90;999.90;;;15.10;88.50;;;;;;5414901;26;20897;-78
2024/04/15 09:33:37;;;;;;;1999.90;999.90;;;15.40;87.40;;;;;;5414936;26;20225;-77
2024/04/15 09:36:03;;;;;;;1999.90;999.90;;;15.50;84.00;;;;;;5420794;26;20007;-77
2024/04/15 09:38:30;;;;;;;1999.90;999.90;;;15.80;84.50;;;;;;5422100;26;20902;-77
2024/04/15 09:40:56;;;;;;;1999.90;999.90;;;16.10;84.50;;;;;;5412901;26;20004;-78
2024/04/15 09:43:25;;;;;;;1999.90;999.90;;;16.60;81.90;;;;;;5424659;26;20013;-77
2024/04/15 09:45:52;;;;;;;1999.90;999.90;;;16.60;81.50;;;;;;5420978;26;20063;-77
2024/04/15 09:48:22;;;;;;;1999.90;999.90;;;16.50;81.80;;;;;;5429996;26;20011;-77
2024/04/15 09:50:52;;;;;;;1999.90;999.90;;;16.40;82.30;;;;;;5419309;26;19999;-78
2024/04/15 09:53:41;;;;;;;1999.90;999.90;;;16.20;83.90;;;;;;5418702;26;20008;-78
2024/04/15 09:56:23;;;;;;;1999.90;999.90;;;16.40;82.80;;;;;;5436052;26;20003;-77
2024/04/15 09:58:57;;;;;;;1999.90;999.90;;;16.10;83.80;;;;;;5432607;26;20027;-77
2024/04/15 10:01:30;;;;;;;1999.90;999.90;;;16.00;82.60;;;;;;5402324;26;20030;-77
2024/04/15 10:04:07;;;;;;;1999.90;999.90;;;16.10;81.60;;;;;;5414341;26;20013;-76
2024/04/15 10:07:03;;;;;;;1999.90;999.90;;;15.80;81.70;;;;;;5409685;26;20040;-78
2024/04/15 10:09:29;;;;;;;1999.90;999.90;;;15.80;81.40;;;;;;5411551;26;20431;-78
2024/04/15 10:11:55;;;;;;;1999.90;999.90;;;15.70;79.60;;;;;;5408848;26;20461;-76
2024/04/15 10:14:21;;;;;;;1999.90;999.90;;;15.70;78.60;;;;;;5422545;26;19995;-77
2024/04/15 10:16:48;;;;;;;1999.90;999.90;;;15.80;78.50;;;;;;5422148;26;20006;-77
2024/04/15 10:19:26;;;;;;;1999.90;999.90;;;15.70;77.30;;;;;;5421534;26;20072;-77
2024/04/15 10:21:52;;;;;;;1999.90;999.90;;;15.70;78.20;;;;;;5406079;26;20569;-77
2024/04/15 10:24:18;;;;;;;1999.90;999.90;;;15.80;80.20;;;;;;5421871;26;19995;-77
2024/04/15 10:26:44;;;;;;;1999.90;999.90;;;16.00;80.10;;;;;;5404193;26;20012;-76
2024/04/15 10:29:17;;;;;;;1999.90;999.90;;;16.10;79.60;;;;;;5420756;26;20009;-76
2024/04/15 10:31:47;;;;;;;1999.90;999.90;;;16.40;77.70;;;;;;5411134;26;20032;-77
2024/04/15 10:34:14;;;;;;;1999.90;999.90;;;16.20;79.10;;;;;;5420453;26;19998;-77
2024/04/15 10:36:43;;;;;;;1999.90;999.90;;;16.00;79.10;;;;;;5417728;26;20022;-77
2024/04/15 10:39:15;;;;;;;1999.90;999.90;;;15.90;79.50;;;;;;5429118;26;20047;-78
2024/04/15 10:41:43;;;;;;;1999.90;999.90;;;15.80;79.80;;;;;;5409142;26;20004;-78
2024/04/15 10:44:09;;;;;;;1999.90;999.90;;;15.60;79.30;;;;;;5418509;26;19994;-78
2024/04/15 10:46:35;;;;;;;;;;;15.60;80.40;;;;;;5409974;26;20003;-76
2024/04/15 10:49:03;;;;;;;1999.90;999.90;;;15.30;80.70;;;;;;5423338;26;19925;-77
2024/04/15 10:51:29;;;;;;;1999.90;999.90;;;15.40;80.90;;;;;;5417859;26;20046;-77
2024/04/15 10:53:54;;;;;;;1999.90;999.90;;;15.30;79.20;;;;;;5418066;26;20007;-76
2024/04/15 10:56:20;;;;;;;1999.90;999.90;;;15.30;80.30;;;;;;5418367;26;20010;-77
2024/04/15 10:58:46;;;;;;;1999.90;999.90;;;15.60;80.10;;;;;;5418665;26;20729;-76
2024/04/15 11:01:15;;;;;;;1999.90;999.90;;;15.80;79.60;;;;;;5432528;26;20000;-77
2024/04/15 11:03:47;;;;;;;1999.90;999.90;;;15.60;80.90;;;;;;5425124;26;20056;-78
2024/04/15 11:06:15;;;;;;;1999.90;999.90;;;15.40;79.90;;;;;;5435819;26;19998;-78
2024/04/15 11:08:41;;;;;;;1999.90;999.90;;;15.20;80.20;;;;;;5425455;26;19999;-78
2024/04/15 11:11:08;;;;;;;1999.90;999.90;;;15.30;81.20;;;;;;5426659;26;20080;-77
2024/04/15 11:13:34;;;;;;;1999.90;999.90;;;15.20;81.00;;;;;;5431245;26;20015;-77
2024/04/15 11:16:00;;;;;;;1999.90;999.90;;;15.10;81.40;;;;;;5432079;26;20552;-76
2024/04/15 11:18:26;;;;;;;1999.90;999.90;;;14.90;81.70;;;;;;5424451;26;20047;-76
2024/04/15 11:20:59;;;;;;;1999.90;999.90;;;14.90;82.20;;;;;;5407950;26;20012;-77
2024/04/15 11:23:25;;;;;;;1999.90;999.90;;;15.30;80.80;;;;;;5414272;26;20235;-76
2024/04/15 11:25:53;;;;;;;1999.90;999.90;;;15.50;80.80;;;;;;5438213;26;20678;-77
2024/04/15 11:28:19;;;;;;;1999.90;999.90;;;15.80;79.30;;;;;;5407121;26;20490;-77
2024/04/15 11:30:46;;;;;;;1999.90;999.90;;;15.60;80.60;;;;;;5407004;26;20007;-76
2024/04/15 11:33:13;;;;;;;1999.90;999.90;;;15.40;81.50;;;;;;5415248;26;20000;-76
2024/04/15 11:35:47;;;;;;;1999.90;999.90;;;15.60;81.70;;;;;;5427963;26;20010;-76
2024/04/15 11:38:13;;;;;;;1999.90;999.90;;;15.70;81.80;;;;;;5427286;26;20334;-77
2024/04/15 11:40:39;;;;;;;1999.90;999.90;;;15.70;81.20;;;;;;5423268;26;20045;-77
2024/04/15 11:43:05;;;;;;;1999.90;999.90;;;16.00;80.40;;;;;;5432213;26;20491;-78
2024/04/15 11:45:30;;;;;;;1999.90;999.90;;;15.70;80.10;;;;;;5425143;26;20018;-77
2024/04/15 11:47:58;;;;;;;1999.90;999.90;;;15.50;81.60;;;;;;5430902;26;20007;-77
2024/04/15 11:50:24;;;;;;;1999.90;999.90;;;17.00;79.30;;;;;;5430655;26;20014;-76
2024/04/15 11:52:50;;;;;;;1999.90;999.90;;;17.50;77.40;;;;;;5430255;26;20003;-77
2024/04/15 11:55:16;;;;;;;1999.90;999.90;;;17.50;76.90;;;;;;5422684;26;20043;-76
2024/04/15 11:57:46;;;;;;;1999.90;999.90;;;16.90;78.80;;;;;;5431609;26;20002;-77